Accueil
METAR-TAF:

METAR-TAF

Aéroports :

Aydın, Turquie

latitude: 37-48-54N, longitude: 27-53-21E, altitude: 31 m

Observation

Le bulletin a été fait il y a 10 heures et 50 minutes, à 15:50 UTC
Vent 5 kt de ouest/nord-ouest, variant entre ouest/sud-ouest et nord
Température 27°C
Humidité 37%
Pression 1012 hPa
Visibilité 10 km ou plus
pas de nuages en-dessous de 1500 mètres et pas de cumulonimbus.

METAR: LTBD 201550Z 29005KT 240V350 CAVOK 27/11 Q1012

Heure: 05:40 (02:40 UTC)

Prévision

Le bulletin a été fait il y a 1 heure et 0 minutes, à 01:40 UTC
Prévision valable du 21 à 03 UTC au 21 à 12 UTC
Vent 2 kt de direction variable
Visibilité 10 km ou plus
Nuages épars à une hauteur de 3000 ft
Nuages fragmentés à une hauteur de 10000 ft

TAF: LTBD 210140Z 2103/2112 VRB02KT 9999 SCT030 BKN100

Observations et prévisions météorologiques de plus de 4000 aéroports (messages METAR et TAF).

Les stations disponibles sont représentées par des disques jaunes et rouges sur la carte.

Passer la souris dessus pour voir le nom de la station.

Cliquer dessus pour voir les observations et prévisions météorologiques.

Pour changer de carte: cliquez sur les boutons verts avec une croix noire pour zoomer, sur le bouton vert avec un tiret pour effectuer un zoom arrière, ou sur les flèches vertes pour les cartes adjacentes.


METAR-TAF: